sensor_id;sensor_type;location;lat;lon;timestamp;pressure;altitude;pressure_sealevel;temperature;humidity
43553;BME280;29153;42.696;23.218;2022-10-16T00:01:39;95108.81;;;5.18;99.97
43553;BME280;29153;42.696;23.218;2022-10-16T00:04:08;95114.06;;;5.18;99.90
43553;BME280;29153;42.696;23.218;2022-10-16T00:06:36;95122.91;;;5.15;100.00
43553;BME280;29153;42.696;23.218;2022-10-16T00:09:04;95123.92;;;5.14;100.00
43553;BME280;29153;42.696;23.218;2022-10-16T00:11:34;95133.82;;;5.09;100.00
43553;BME280;29153;42.696;23.218;2022-10-16T00:14:08;95129.23;;;5.04;100.00
43553;BME280;29153;42.696;23.218;2022-10-16T00:16:36;95130.60;;;5.07;100.00
43553;BME280;29153;42.696;23.218;2022-10-16T00:19:04;95121.44;;;4.98;100.00
43553;BME280;29153;42.696;23.218;2022-10-16T00:21:32;95124.50;;;5.04;100.00
43553;BME280;29153;42.696;23.218;2022-10-16T00:24:03;95128.00;;;4.98;100.00
43553;BME280;29153;42.696;23.218;2022-10-16T00:26:32;95130.06;;;4.96;100.00
43553;BME280;29153;42.696;23.218;2022-10-16T00:29:01;95134.86;;;4.99;100.00
43553;BME280;29153;42.696;23.218;2022-10-16T00:31:29;95134.00;;;4.96;100.00
43553;BME280;29153;42.696;23.218;2022-10-16T00:33:57;95133.20;;;4.95;100.00
43553;BME280;29153;42.696;23.218;2022-10-16T00:36:26;95139.92;;;4.91;100.00
43553;BME280;29153;42.696;23.218;2022-10-16T00:38:55;95141.74;;;4.91;100.00
43553;BME280;29153;42.696;23.218;2022-10-16T00:41:27;95142.91;;;4.86;100.00
43553;BME280;29153;42.696;23.218;2022-10-16T00:43:57;95135.84;;;4.86;100.00
43553;BME280;29153;42.696;23.218;2022-10-16T00:46:44;95132.87;;;4.83;100.00
43553;BME280;29153;42.696;23.218;2022-10-16T00:49:00;95129.20;;;4.84;100.00
43553;BME280;29153;42.696;23.218;2022-10-16T00:51:33;95126.66;;;4.86;100.00
43553;BME280;29153;42.696;23.218;2022-10-16T00:54:03;95128.64;;;4.82;100.00
43553;BME280;29153;42.696;23.218;2022-10-16T00:56:32;95135.27;;;4.75;100.00
43553;BME280;29153;42.696;23.218;2022-10-16T00:59:03;95135.70;;;4.81;100.00
43553;BME280;29153;42.696;23.218;2022-10-16T01:01:31;95135.51;;;4.74;100.00
43553;BME280;29153;42.696;23.218;2022-10-16T01:03:58;95132.45;;;4.68;100.00
43553;BME280;29153;42.696;23.218;2022-10-16T01:06:33;95134.88;;;4.60;100.00
43553;BME280;29153;42.696;23.218;2022-10-16T01:09:17;95135.67;;;4.61;100.00
43553;BME280;29153;42.696;23.218;2022-10-16T01:17:10;95143.30;;;4.71;100.00
43553;BME280;29153;42.696;23.218;2022-10-16T01:22:16;95144.35;;;4.61;100.00
43553;BME280;29153;42.696;23.218;2022-10-16T01:24:48;95140.92;;;4.61;100.00
43553;BME280;29153;42.696;23.218;2022-10-16T01:27:27;95135.82;;;4.66;100.00
43553;BME280;29153;42.696;23.218;2022-10-16T01:30:10;95128.45;;;4.65;100.00
43553;BME280;29153;42.696;23.218;2022-10-16T01:33:00;95122.63;;;4.54;100.00
43553;BME280;29153;42.696;23.218;2022-10-16T01:35:36;95121.31;;;4.54;100.00
43553;BME280;29153;42.696;23.218;2022-10-16T01:40:33;95131.95;;;4.50;100.00
43553;BME280;29153;42.696;23.218;2022-10-16T01:43:05;95129.78;;;4.56;100.00
43553;BME280;29153;42.696;23.218;2022-10-16T01:45:32;95135.23;;;4.54;100.00
43553;BME280;29153;42.696;23.218;2022-10-16T01:48:02;95132.45;;;4.58;100.00
43553;BME280;29153;42.696;23.218;2022-10-16T01:50:37;95131.95;;;4.59;100.00
43553;BME280;29153;42.696;23.218;2022-10-16T01:53:08;95137.70;;;4.58;100.00
43553;BME280;29153;42.696;23.218;2022-10-16T01:55:39;95140.33;;;4.58;100.00
43553;BME280;29153;42.696;23.218;2022-10-16T01:58:10;95147.64;;;4.47;100.00
43553;BME280;29153;42.696;23.218;2022-10-16T02:00:42;95149.52;;;4.49;100.00
43553;BME280;29153;42.696;23.218;2022-10-16T02:03:10;95147.05;;;4.45;100.00
43553;BME280;29153;42.696;23.218;2022-10-16T02:05:43;95146.92;;;4.40;100.00
43553;BME280;29153;42.696;23.218;2022-10-16T02:08:10;95151.94;;;4.42;100.00
43553;BME280;29153;42.696;23.218;2022-10-16T02:10:39;95151.27;;;4.28;100.00
43553;BME280;29153;42.696;23.218;2022-10-16T02:15:43;95159.73;;;4.30;100.00
43553;BME280;29153;42.696;23.218;2022-10-16T02:18:10;95165.80;;;4.31;100.00
43553;BME280;29153;42.696;23.218;2022-10-16T02:20:46;95165.70;;;4.28;100.00
43553;BME280;29153;42.696;23.218;2022-10-16T02:23:14;95162.95;;;4.23;100.00
43553;BME280;29153;42.696;23.218;2022-10-16T02:25:43;95168.33;;;4.10;100.00
43553;BME280;29153;42.696;23.218;2022-10-16T02:28:34;95166.73;;;4.18;100.00
43553;BME280;29153;42.696;23.218;2022-10-16T02:31:03;95171.33;;;4.23;100.00
43553;BME280;29153;42.696;23.218;2022-10-16T02:33:32;95178.30;;;4.20;100.00
43553;BME280;29153;42.696;23.218;2022-10-16T02:36:01;95167.14;;;4.15;100.00
43553;BME280;29153;42.696;23.218;2022-10-16T02:38:29;95170.22;;;4.21;100.00
43553;BME280;29153;42.696;23.218;2022-10-16T02:40:58;95170.56;;;4.06;100.00
43553;BME280;29153;42.696;23.218;2022-10-16T02:43:26;95175.16;;;4.11;100.00
43553;BME280;29153;42.696;23.218;2022-10-16T02:45:54;95180.78;;;4.05;100.00
43553;BME280;29153;42.696;23.218;2022-10-16T02:48:22;95176.18;;;4.01;100.00
43553;BME280;29153;42.696;23.218;2022-10-16T02:50:49;95185.05;;;4.00;100.00
43553;BME280;29153;42.696;23.218;2022-10-16T02:53:17;95190.47;;;4.14;100.00
43553;BME280;29153;42.696;23.218;2022-10-16T02:55:45;95188.92;;;4.16;100.00
43553;BME280;29153;42.696;23.218;2022-10-16T02:58:12;95190.00;;;3.99;100.00
43553;BME280;29153;42.696;23.218;2022-10-16T03:00:40;95193.27;;;3.94;100.00
43553;BME280;29153;42.696;23.218;2022-10-16T03:03:08;95190.58;;;3.92;100.00
43553;BME280;29153;42.696;23.218;2022-10-16T03:05:35;95185.91;;;3.94;100.00
43553;BME280;29153;42.696;23.218;2022-10-16T03:08:03;95191.36;;;3.83;100.00
43553;BME280;29153;42.696;23.218;2022-10-16T03:10:31;95192.97;;;3.84;100.00
43553;BME280;29153;42.696;23.218;2022-10-16T03:12:58;95186.63;;;3.83;100.00
43553;BME280;29153;42.696;23.218;2022-10-16T03:15:26;95190.35;;;3.84;100.00
43553;BME280;29153;42.696;23.218;2022-10-16T03:18:01;95192.53;;;3.87;100.00
43553;BME280;29153;42.696;23.218;2022-10-16T03:20:25;95190.77;;;3.72;99.92
43553;BME280;29153;42.696;23.218;2022-10-16T03:22:53;95197.38;;;3.75;100.00
43553;BME280;29153;42.696;23.218;2022-10-16T03:25:20;95196.71;;;3.70;100.00
43553;BME280;29153;42.696;23.218;2022-10-16T03:27:48;95194.96;;;3.73;100.00
43553;BME280;29153;42.696;23.218;2022-10-16T03:30:16;95204.64;;;3.63;100.00
43553;BME280;29153;42.696;23.218;2022-10-16T03:32:46;95207.45;;;3.62;100.00
43553;BME280;29153;42.696;23.218;2022-10-16T03:35:14;95209.10;;;3.56;100.00
43553;BME280;29153;42.696;23.218;2022-10-16T03:37:42;95213.97;;;3.53;100.00
43553;BME280;29153;42.696;23.218;2022-10-16T03:40:09;95205.61;;;3.53;99.94
43553;BME280;29153;42.696;23.218;2022-10-16T03:42:37;95204.86;;;3.46;100.00
43553;BME280;29153;42.696;23.218;2022-10-16T03:45:05;95203.75;;;3.45;100.00
43553;BME280;29153;42.696;23.218;2022-10-16T03:47:33;95198.38;;;3.49;100.00
43553;BME280;29153;42.696;23.218;2022-10-16T03:50:00;95200.16;;;3.55;100.00
43553;BME280;29153;42.696;23.218;2022-10-16T03:52:28;95198.89;;;3.48;100.00
43553;BME280;29153;42.696;23.218;2022-10-16T03:54:55;95205.06;;;3.45;100.00
43553;BME280;29153;42.696;23.218;2022-10-16T03:57:24;95203.02;;;3.47;100.00
43553;BME280;29153;42.696;23.218;2022-10-16T03:59:52;95195.48;;;3.32;100.00
43553;BME280;29153;42.696;23.218;2022-10-16T04:02:19;95204.78;;;3.28;100.00
43553;BME280;29153;42.696;23.218;2022-10-16T04:04:47;95200.11;;;3.30;100.00
43553;BME280;29153;42.696;23.218;2022-10-16T04:07:14;95196.36;;;3.35;100.00
43553;BME280;29153;42.696;23.218;2022-10-16T04:09:42;95197.47;;;3.37;100.00
43553;BME280;29153;42.696;23.218;2022-10-16T04:12:09;95204.82;;;3.37;100.00
43553;BME280;29153;42.696;23.218;2022-10-16T04:14:37;95199.72;;;3.33;100.00
43553;BME280;29153;42.696;23.218;2022-10-16T04:17:04;95201.02;;;3.33;100.00
43553;BME280;29153;42.696;23.218;2022-10-16T04:19:32;95201.28;;;3.25;100.00
43553;BME280;29153;42.696;23.218;2022-10-16T04:22:00;95195.87;;;3.20;100.00
43553;BME280;29153;42.696;23.218;2022-10-16T04:24:27;95200.67;;;3.23;100.00
43553;BME280;29153;42.696;23.218;2022-10-16T04:26:55;95201.68;;;3.22;100.00
43553;BME280;29153;42.696;23.218;2022-10-16T04:29:22;95205.20;;;3.25;100.00
43553;BME280;29153;42.696;23.218;2022-10-16T04:31:50;95206.61;;;3.21;100.00
43553;BME280;29153;42.696;23.218;2022-10-16T04:34:18;95205.03;;;3.20;100.00
43553;BME280;29153;42.696;23.218;2022-10-16T04:36:47;95209.16;;;3.03;100.00
43553;BME280;29153;42.696;23.218;2022-10-16T04:39:18;95213.59;;;3.02;100.00
43553;BME280;29153;42.696;23.218;2022-10-16T04:41:45;95212.53;;;3.10;100.00
43553;BME280;29153;42.696;23.218;2022-10-16T04:44:13;95217.06;;;3.12;100.00
43553;BME280;29153;42.696;23.218;2022-10-16T04:46:40;95212.58;;;3.03;100.00
43553;BME280;29153;42.696;23.218;2022-10-16T04:49:08;95217.59;;;3.05;100.00
43553;BME280;29153;42.696;23.218;2022-10-16T04:51:35;95213.41;;;3.13;100.00
43553;BME280;29153;42.696;23.218;2022-10-16T04:54:03;95221.95;;;3.17;100.00
43553;BME280;29153;42.696;23.218;2022-10-16T04:56:31;95231.78;;;3.22;100.00
43553;BME280;29153;42.696;23.218;2022-10-16T04:58:58;95228.16;;;3.23;100.00
43553;BME280;29153;42.696;23.218;2022-10-16T05:01:26;95234.66;;;3.30;100.00
43553;BME280;29153;42.696;23.218;2022-10-16T05:03:53;95235.08;;;3.27;100.00
43553;BME280;29153;42.696;23.218;2022-10-16T05:06:21;95236.09;;;3.26;100.00
43553;BME280;29153;42.696;23.218;2022-10-16T05:08:48;95243.24;;;3.28;100.00
43553;BME280;29153;42.696;23.218;2022-10-16T05:11:16;95238.69;;;3.32;100.00
43553;BME280;29153;42.696;23.218;2022-10-16T05:13:44;95239.19;;;3.32;100.00
43553;BME280;29153;42.696;23.218;2022-10-16T05:16:11;95248.84;;;3.38;100.00
43553;BME280;29153;42.696;23.218;2022-10-16T05:18:39;95234.43;;;3.38;100.00
43553;BME280;29153;42.696;23.218;2022-10-16T05:21:06;95254.69;;;3.49;100.00
43553;BME280;29153;42.696;23.218;2022-10-16T05:23:34;95245.40;;;3.53;100.00
43553;BME280;29153;42.696;23.218;2022-10-16T05:26:01;95247.96;;;3.59;100.00
43553;BME280;29153;42.696;23.218;2022-10-16T05:28:29;95250.55;;;3.66;100.00
43553;BME280;29153;42.696;23.218;2022-10-16T05:30:57;95252.97;;;3.68;100.00
43553;BME280;29153;42.696;23.218;2022-10-16T05:33:26;95254.14;;;3.72;100.00
43553;BME280;29153;42.696;23.218;2022-10-16T05:35:53;95253.28;;;3.78;100.00
43553;BME280;29153;42.696;23.218;2022-10-16T05:38:21;95258.12;;;3.90;100.00
43553;BME280;29153;42.696;23.218;2022-10-16T05:40:52;95259.02;;;3.93;100.00
43553;BME280;29153;42.696;23.218;2022-10-16T05:43:20;95266.38;;;4.02;100.00
43553;BME280;29153;42.696;23.218;2022-10-16T05:45:56;95271.59;;;4.09;100.00
43553;BME280;29153;42.696;23.218;2022-10-16T05:48:24;95269.06;;;4.21;100.00
43553;BME280;29153;42.696;23.218;2022-10-16T05:51:00;95266.66;;;4.28;100.00
43553;BME280;29153;42.696;23.218;2022-10-16T05:53:30;95268.50;;;4.37;100.00
43553;BME280;29153;42.696;23.218;2022-10-16T05:55:58;95272.24;;;4.47;100.00
43553;BME280;29153;42.696;23.218;2022-10-16T05:58:31;95276.77;;;4.58;100.00
43553;BME280;29153;42.696;23.218;2022-10-16T06:01:05;95275.82;;;4.71;100.00
43553;BME280;29153;42.696;23.218;2022-10-16T06:03:34;95282.98;;;4.82;100.00
43553;BME280;29153;42.696;23.218;2022-10-16T06:06:12;95286.03;;;4.88;100.00
43553;BME280;29153;42.696;23.218;2022-10-16T06:08:41;95284.30;;;5.00;100.00
43553;BME280;29153;42.696;23.218;2022-10-16T06:11:12;95283.84;;;5.13;100.00
43553;BME280;29153;42.696;23.218;2022-10-16T06:13:40;95290.77;;;5.25;100.00
43553;BME280;29153;42.696;23.218;2022-10-16T06:16:09;95293.79;;;5.40;100.00
43553;BME280;29153;42.696;23.218;2022-10-16T06:18:37;95294.12;;;5.53;100.00
43553;BME280;29153;42.696;23.218;2022-10-16T06:21:16;95295.05;;;5.68;100.00
43553;BME280;29153;42.696;23.218;2022-10-16T06:23:44;95295.45;;;5.74;100.00
43553;BME280;29153;42.696;23.218;2022-10-16T06:26:18;95299.83;;;5.89;100.00
43553;BME280;29153;42.696;23.218;2022-10-16T06:28:46;95309.81;;;6.10;100.00
43553;BME280;29153;42.696;23.218;2022-10-16T06:31:15;95307.28;;;6.24;100.00
43553;BME280;29153;42.696;23.218;2022-10-16T06:33:43;95311.45;;;6.34;100.00
43553;BME280;29153;42.696;23.218;2022-10-16T06:36:14;95311.98;;;6.46;100.00
43553;BME280;29153;42.696;23.218;2022-10-16T06:38:42;95312.91;;;6.63;100.00
43553;BME280;29153;42.696;23.218;2022-10-16T06:41:12;95317.12;;;6.87;100.00
43553;BME280;29153;42.696;23.218;2022-10-16T06:43:41;95319.41;;;7.47;100.00
43553;BME280;29153;42.696;23.218;2022-10-16T06:46:10;95308.46;;;9.17;100.00
43553;BME280;29153;42.696;23.218;2022-10-16T06:48:38;95318.49;;;10.65;89.22
43553;BME280;29153;42.696;23.218;2022-10-16T06:51:14;95329.20;;;11.79;82.55
43553;BME280;29153;42.696;23.218;2022-10-16T06:53:49;95330.90;;;12.41;77.32
43553;BME280;29153;42.696;23.218;2022-10-16T06:56:15;95337.00;;;12.21;77.65
43553;BME280;29153;42.696;23.218;2022-10-16T06:58:43;95333.29;;;12.30;77.08
43553;BME280;29153;42.696;23.218;2022-10-16T07:01:12;95338.34;;;12.85;76.21
43553;BME280;29153;42.696;23.218;2022-10-16T07:03:42;95342.47;;;13.69;68.52
43553;BME280;29153;42.696;23.218;2022-10-16T07:06:12;95347.53;;;14.64;67.56
43553;BME280;29153;42.696;23.218;2022-10-16T07:08:42;95348.94;;;15.71;61.97
43553;BME280;29153;42.696;23.218;2022-10-16T07:11:19;95348.89;;;16.75;57.77
43553;BME280;29153;42.696;23.218;2022-10-16T07:13:43;95346.45;;;17.11;54.71
43553;BME280;29153;42.696;23.218;2022-10-16T07:16:14;95349.60;;;17.59;52.84
43553;BME280;29153;42.696;23.218;2022-10-16T07:18:44;95350.06;;;17.17;52.79
43553;BME280;29153;42.696;23.218;2022-10-16T07:21:19;95351.56;;;17.83;52.67
43553;BME280;29153;42.696;23.218;2022-10-16T07:23:43;95346.74;;;18.46;50.53
43553;BME280;29153;42.696;23.218;2022-10-16T07:26:10;95352.92;;;18.82;49.77
43553;BME280;29153;42.696;23.218;2022-10-16T07:28:38;95343.20;;;18.84;48.85
43553;BME280;29153;42.696;23.218;2022-10-16T07:31:09;95344.81;;;18.74;49.07
43553;BME280;29153;42.696;23.218;2022-10-16T07:33:38;95343.26;;;18.45;50.87
43553;BME280;29153;42.696;23.218;2022-10-16T07:36:06;95347.90;;;18.42;51.45
43553;BME280;29153;42.696;23.218;2022-10-16T07:38:34;95347.12;;;18.03;52.70
43553;BME280;29153;42.696;23.218;2022-10-16T07:41:04;95351.23;;;16.79;56.56
43553;BME280;29153;42.696;23.218;2022-10-16T07:43:32;95351.23;;;16.79;56.56
43553;BME280;29153;42.696;23.218;2022-10-16T07:46:00;95350.19;;;16.40;59.09
43553;BME280;29153;42.696;23.218;2022-10-16T07:48:29;95349.32;;;16.05;58.68
43553;BME280;29153;42.696;23.218;2022-10-16T07:50:59;95352.39;;;15.45;58.28
43553;BME280;29153;42.696;23.218;2022-10-16T07:53:27;95353.23;;;15.15;61.14
43553;BME280;29153;42.696;23.218;2022-10-16T07:55:59;95355.52;;;15.00;61.23
43553;BME280;29153;42.696;23.218;2022-10-16T07:58:28;95360.28;;;15.03;64.95
43553;BME280;29153;42.696;23.218;2022-10-16T08:00:56;95364.30;;;14.72;63.95
43553;BME280;29153;42.696;23.218;2022-10-16T08:03:24;95359.83;;;14.62;66.16
43553;BME280;29153;42.696;23.218;2022-10-16T08:05:52;95359.83;;;14.62;66.16
43553;BME280;29153;42.696;23.218;2022-10-16T08:08:20;95366.08;;;14.42;64.85
43553;BME280;29153;42.696;23.218;2022-10-16T08:10:47;95360.28;;;14.25;67.46
43553;BME280;29153;42.696;23.218;2022-10-16T08:13:15;95357.03;;;14.38;67.98
43553;BME280;29153;42.696;23.218;2022-10-16T08:15:43;95355.91;;;14.49;69.49
43553;BME280;29153;42.696;23.218;2022-10-16T08:18:11;95355.89;;;14.52;64.73
43553;BME280;29153;42.696;23.218;2022-10-16T08:20:39;95359.17;;;14.41;65.20
43553;BME280;29153;42.696;23.218;2022-10-16T08:23:09;95353.30;;;14.39;65.12
43553;BME280;29153;42.696;23.218;2022-10-16T08:25:37;95358.38;;;14.38;63.60
43553;BME280;29153;42.696;23.218;2022-10-16T08:28:05;95357.06;;;14.36;66.06
43553;BME280;29153;42.696;23.218;2022-10-16T08:30:33;95353.41;;;14.19;64.01
43553;BME280;29153;42.696;23.218;2022-10-16T08:33:01;95352.29;;;14.28;67.19
43553;BME280;29153;42.696;23.218;2022-10-16T08:35:29;95355.97;;;14.34;65.38
43553;BME280;29153;42.696;23.218;2022-10-16T08:37:56;95355.09;;;14.54;64.10
43553;BME280;29153;42.696;23.218;2022-10-16T08:40:29;95351.80;;;14.65;62.26
43553;BME280;29153;42.696;23.218;2022-10-16T08:48:54;95355.00;;;14.64;62.89
43553;BME280;29153;42.696;23.218;2022-10-16T08:51:35;95356.86;;;14.64;60.41
43553;BME280;29153;42.696;23.218;2022-10-16T08:54:04;95356.30;;;14.72;64.19
43553;BME280;29153;42.696;23.218;2022-10-16T08:56:33;95349.52;;;14.82;64.14
43553;BME280;29153;42.696;23.218;2022-10-16T08:59:00;95356.55;;;15.04;66.86
43553;BME280;29153;42.696;23.218;2022-10-16T09:01:44;95360.66;;;15.20;63.33
43553;BME280;29153;42.696;23.218;2022-10-16T09:07:21;95361.78;;;15.43;56.54
43553;BME280;29153;42.696;23.218;2022-10-16T09:15:29;95359.86;;;15.48;56.79
43553;BME280;29153;42.696;23.218;2022-10-16T09:23:19;95352.47;;;16.09;54.40
43553;BME280;29153;42.696;23.218;2022-10-16T09:25:49;95347.05;;;16.17;53.28
43553;BME280;29153;42.696;23.218;2022-10-16T09:28:21;95354.66;;;16.26;53.15
43553;BME280;29153;42.696;23.218;2022-10-16T09:30:50;95355.06;;;16.17;48.83
43553;BME280;29153;42.696;23.218;2022-10-16T09:33:28;95359.78;;;16.22;50.97
43553;BME280;29153;42.696;23.218;2022-10-16T09:35:56;95359.95;;;16.10;50.44
43553;BME280;29153;42.696;23.218;2022-10-16T09:38:33;95355.62;;;16.14;49.62
43553;BME280;29153;42.696;23.218;2022-10-16T09:41:25;95359.41;;;16.10;48.63
43553;BME280;29153;42.696;23.218;2022-10-16T09:46:35;95354.20;;;16.21;52.57
43553;BME280;29153;42.696;23.218;2022-10-16T09:49:18;95339.70;;;16.44;53.15
43553;BME280;29153;42.696;23.218;2022-10-16T09:51:36;95339.70;;;16.44;53.15
43553;BME280;29153;42.696;23.218;2022-10-16T09:54:16;95343.67;;;16.67;49.55
43553;BME280;29153;42.696;23.218;2022-10-16T09:56:44;95349.28;;;16.68;47.32
43553;BME280;29153;42.696;23.218;2022-10-16T09:59:18;95336.06;;;16.56;49.33
43553;BME280;29153;42.696;23.218;2022-10-16T10:01:48;95334.05;;;16.66;48.72
43553;BME280;29153;42.696;23.218;2022-10-16T10:04:22;95341.88;;;16.79;48.90
43553;BME280;29153;42.696;23.218;2022-10-16T10:06:52;95336.91;;;16.89;47.72
43553;BME280;29153;42.696;23.218;2022-10-16T10:09:25;95330.09;;;16.80;47.41
43553;BME280;29153;42.696;23.218;2022-10-16T10:14:38;95328.16;;;16.83;48.26
43553;BME280;29153;42.696;23.218;2022-10-16T10:19:46;95331.23;;;17.22;45.63
43553;BME280;29153;42.696;23.218;2022-10-16T10:22:40;95328.44;;;17.14;47.52
43553;BME280;29153;42.696;23.218;2022-10-16T10:28:16;95323.97;;;17.09;48.73
43553;BME280;29153;42.696;23.218;2022-10-16T10:31:03;95323.97;;;17.09;48.73
43553;BME280;29153;42.696;23.218;2022-10-16T10:36:36;95314.52;;;17.14;50.48
43553;BME280;29153;42.696;23.218;2022-10-16T10:53:19;95301.40;;;16.67;44.81
43553;BME280;29153;42.696;23.218;2022-10-16T10:55:51;95298.80;;;16.78;45.58
43553;BME280;29153;42.696;23.218;2022-10-16T11:01:39;95286.48;;;17.09;47.27
43553;BME280;29153;42.696;23.218;2022-10-16T11:09:51;95285.13;;;17.39;46.18
43553;BME280;29153;42.696;23.218;2022-10-16T11:12:21;95281.75;;;17.34;48.15
43553;BME280;29153;42.696;23.218;2022-10-16T11:15:21;95275.75;;;17.39;47.08
43553;BME280;29153;42.696;23.218;2022-10-16T11:17:47;95274.02;;;17.32;47.48
43553;BME280;29153;42.696;23.218;2022-10-16T11:20:29;95272.02;;;17.10;45.87
43553;BME280;29153;42.696;23.218;2022-10-16T11:23:00;95268.05;;;17.21;46.38
43553;BME280;29153;42.696;23.218;2022-10-16T11:25:31;95268.05;;;17.21;46.38
43553;BME280;29153;42.696;23.218;2022-10-16T11:39:24;95271.36;;;17.16;47.90
43553;BME280;29153;42.696;23.218;2022-10-16T11:42:01;95269.36;;;17.24;48.65
43553;BME280;29153;42.696;23.218;2022-10-16T11:44:38;95257.00;;;17.25;47.27
43553;BME280;29153;42.696;23.218;2022-10-16T11:49:57;95266.44;;;17.37;46.57
43553;BME280;29153;42.696;23.218;2022-10-16T11:57:39;95270.36;;;17.28;47.66
43553;BME280;29153;42.696;23.218;2022-10-16T12:02:57;95271.73;;;17.39;47.13
43553;BME280;29153;42.696;23.218;2022-10-16T12:08:13;95265.03;;;17.25;45.46
43553;BME280;29153;42.696;23.218;2022-10-16T12:10:44;95260.76;;;17.24;45.16
43553;BME280;29153;42.696;23.218;2022-10-16T12:13:33;95261.87;;;17.23;49.09
43553;BME280;29153;42.696;23.218;2022-10-16T12:16:29;95258.53;;;17.29;44.67
43553;BME280;29153;42.696;23.218;2022-10-16T12:18:36;95261.37;;;17.35;44.53
43553;BME280;29153;42.696;23.218;2022-10-16T12:21:04;95258.98;;;17.34;45.80
43553;BME280;29153;42.696;23.218;2022-10-16T12:23:38;95263.85;;;17.32;45.92
43553;BME280;29153;42.696;23.218;2022-10-16T12:26:06;95266.34;;;17.28;48.37
43553;BME280;29153;42.696;23.218;2022-10-16T12:28:34;95260.41;;;17.28;47.28
43553;BME280;29153;42.696;23.218;2022-10-16T12:31:09;95268.13;;;17.33;47.16
43553;BME280;29153;42.696;23.218;2022-10-16T12:33:43;95264.84;;;17.36;43.62
43553;BME280;29153;42.696;23.218;2022-10-16T12:36:13;95261.98;;;17.16;42.59
43553;BME280;29153;42.696;23.218;2022-10-16T12:38:47;95269.30;;;17.26;43.92
43553;BME280;29153;42.696;23.218;2022-10-16T12:41:37;95262.52;;;17.32;45.29
43553;BME280;29153;42.696;23.218;2022-10-16T12:44:01;95259.14;;;17.40;48.18
43553;BME280;29153;42.696;23.218;2022-10-16T12:51:46;95261.97;;;17.32;43.61
43553;BME280;29153;42.696;23.218;2022-10-16T12:54:15;95261.27;;;17.26;45.45
43553;BME280;29153;42.696;23.218;2022-10-16T13:05:08;95271.94;;;17.15;45.95
43553;BME280;29153;42.696;23.218;2022-10-16T13:07:46;95272.02;;;17.10;46.75
43553;BME280;29153;42.696;23.218;2022-10-16T13:10:26;95273.32;;;17.26;45.57
43553;BME280;29153;42.696;23.218;2022-10-16T13:15:50;95274.48;;;17.37;44.74
43553;BME280;29153;42.696;23.218;2022-10-16T13:18:29;95271.54;;;17.36;46.44
43553;BME280;29153;42.696;23.218;2022-10-16T13:26:28;95274.85;;;17.30;41.29
43553;BME280;29153;42.696;23.218;2022-10-16T13:28:54;95269.47;;;17.33;42.91
43553;BME280;29153;42.696;23.218;2022-10-16T13:31:24;95275.50;;;17.38;42.29
43553;BME280;29153;42.696;23.218;2022-10-16T13:33:55;95275.02;;;17.36;42.57
43553;BME280;29153;42.696;23.218;2022-10-16T13:36:25;95279.92;;;17.32;42.87
43553;BME280;29153;42.696;23.218;2022-10-16T13:39:11;95279.92;;;17.32;42.87
43553;BME280;29153;42.696;23.218;2022-10-16T13:41:39;95278.39;;;17.28;43.97
43553;BME280;29153;42.696;23.218;2022-10-16T13:44:15;95278.77;;;17.21;45.10
43553;BME280;29153;42.696;23.218;2022-10-16T13:46:43;95278.77;;;17.21;45.10
43553;BME280;29153;42.696;23.218;2022-10-16T13:49:17;95276.34;;;17.22;42.13
43553;BME280;29153;42.696;23.218;2022-10-16T13:51:47;95285.66;;;17.11;42.07
43553;BME280;29153;42.696;23.218;2022-10-16T13:54:11;95282.98;;;17.11;41.62
43553;BME280;29153;42.696;23.218;2022-10-16T13:56:39;95284.55;;;17.12;42.36
43553;BME280;29153;42.696;23.218;2022-10-16T13:59:26;95279.52;;;17.11;42.95
43553;BME280;29153;42.696;23.218;2022-10-16T14:01:52;95279.20;;;17.12;43.93
43553;BME280;29153;42.696;23.218;2022-10-16T14:04:20;95280.85;;;17.11;43.83
43553;BME280;29153;42.696;23.218;2022-10-16T14:06:50;95282.16;;;16.97;44.73
43553;BME280;29153;42.696;23.218;2022-10-16T14:09:29;95280.36;;;16.93;45.85
43553;BME280;29153;42.696;23.218;2022-10-16T14:12:00;95285.73;;;16.90;45.37
43553;BME280;29153;42.696;23.218;2022-10-16T14:14:35;95279.48;;;16.97;46.54
43553;BME280;29153;42.696;23.218;2022-10-16T14:16:58;95284.30;;;16.98;43.62
43553;BME280;29153;42.696;23.218;2022-10-16T14:19:28;95280.56;;;16.96;45.13
43553;BME280;29153;42.696;23.218;2022-10-16T14:21:57;95272.81;;;16.81;44.34
43553;BME280;29153;42.696;23.218;2022-10-16T14:24:31;95286.76;;;16.78;45.12
43553;BME280;29153;42.696;23.218;2022-10-16T14:27:00;95282.93;;;16.68;43.54
43553;BME280;29153;42.696;23.218;2022-10-16T14:29:29;95279.41;;;16.70;43.19
43553;BME280;29153;42.696;23.218;2022-10-16T14:32:04;95286.42;;;16.66;44.85
43553;BME280;29153;42.696;23.218;2022-10-16T14:34:34;95284.05;;;16.46;44.31
43553;BME280;29153;42.696;23.218;2022-10-16T14:39:50;95292.00;;;16.51;45.38
43553;BME280;29153;42.696;23.218;2022-10-16T14:42:20;95293.20;;;16.23;44.18
43553;BME280;29153;42.696;23.218;2022-10-16T14:44:51;95293.73;;;16.25;44.51
43553;BME280;29153;42.696;23.218;2022-10-16T14:47:26;95296.47;;;16.20;43.38
43553;BME280;29153;42.696;23.218;2022-10-16T14:49:52;95301.44;;;16.27;44.01
43553;BME280;29153;42.696;23.218;2022-10-16T14:52:21;95292.27;;;16.14;44.56
43553;BME280;29153;42.696;23.218;2022-10-16T14:54:50;95307.44;;;16.19;43.46
43553;BME280;29153;42.696;23.218;2022-10-16T14:57:22;95307.62;;;16.06;45.53
43553;BME280;29153;42.696;23.218;2022-10-16T14:59:50;95317.03;;;15.82;47.44
43553;BME280;29153;42.696;23.218;2022-10-16T15:02:32;95314.09;;;15.60;46.73
43553;BME280;29153;42.696;23.218;2022-10-16T15:05:20;95314.09;;;15.60;46.73
43553;BME280;29153;42.696;23.218;2022-10-16T15:07:49;95321.95;;;15.46;46.40